sensor_id;sensor_type;location;lat;lon;timestamp;temperature;humidity
39525;DHT22;25203;50.754;6.978;2023-05-07T00:01:24;12.90;99.90
39525;DHT22;25203;50.754;6.978;2023-05-07T00:03:24;12.90;99.90
39525;DHT22;25203;50.754;6.978;2023-05-07T00:05:25;12.90;99.90
39525;DHT22;25203;50.754;6.978;2023-05-07T00:07:26;12.80;99.90
39525;DHT22;25203;50.754;6.978;2023-05-07T00:09:26;12.90;99.90
39525;DHT22;25203;50.754;6.978;2023-05-07T00:11:28;12.90;99.90
39525;DHT22;25203;50.754;6.978;2023-05-07T00:13:28;12.80;99.90
39525;DHT22;25203;50.754;6.978;2023-05-07T00:15:35;12.90;99.90
39525;DHT22;25203;50.754;6.978;2023-05-07T00:17:36;12.90;99.90
39525;DHT22;25203;50.754;6.978;2023-05-07T00:19:37;12.90;99.90
39525;DHT22;25203;50.754;6.978;2023-05-07T00:21:37;12.90;99.90
39525;DHT22;25203;50.754;6.978;2023-05-07T00:23:38;12.90;99.90
39525;DHT22;25203;50.754;6.978;2023-05-07T00:25:39;13.00;99.90
39525;DHT22;25203;50.754;6.978;2023-05-07T00:27:39;13.00;99.90
39525;DHT22;25203;50.754;6.978;2023-05-07T00:29:40;12.90;99.90
39525;DHT22;25203;50.754;6.978;2023-05-07T00:31:40;13.00;99.90
39525;DHT22;25203;50.754;6.978;2023-05-07T00:33:41;13.00;99.90
39525;DHT22;25203;50.754;6.978;2023-05-07T00:35:42;13.00;99.90
39525;DHT22;25203;50.754;6.978;2023-05-07T00:37:43;13.00;99.90
39525;DHT22;25203;50.754;6.978;2023-05-07T00:39:43;13.00;99.90
39525;DHT22;25203;50.754;6.978;2023-05-07T00:41:44;13.00;99.90
39525;DHT22;25203;50.754;6.978;2023-05-07T00:43:45;13.10;99.90
39525;DHT22;25203;50.754;6.978;2023-05-07T00:45:45;13.10;99.90
39525;DHT22;25203;50.754;6.978;2023-05-07T00:47:46;13.10;99.90
39525;DHT22;25203;50.754;6.978;2023-05-07T00:49:48;13.10;99.90
39525;DHT22;25203;50.754;6.978;2023-05-07T00:51:49;13.10;99.90
39525;DHT22;25203;50.754;6.978;2023-05-07T00:53:50;13.20;99.90
39525;DHT22;25203;50.754;6.978;2023-05-07T00:55:51;13.20;99.90
39525;DHT22;25203;50.754;6.978;2023-05-07T00:57:52;13.10;99.90
39525;DHT22;25203;50.754;6.978;2023-05-07T00:59:52;13.20;99.90
39525;DHT22;25203;50.754;6.978;2023-05-07T01:01:53;13.20;99.90
39525;DHT22;25203;50.754;6.978;2023-05-07T01:03:54;13.20;99.90
39525;DHT22;25203;50.754;6.978;2023-05-07T01:05:55;13.20;99.90
39525;DHT22;25203;50.754;6.978;2023-05-07T01:07:58;13.20;99.90
39525;DHT22;25203;50.754;6.978;2023-05-07T01:10:00;13.10;99.90
39525;DHT22;25203;50.754;6.978;2023-05-07T01:12:01;13.10;99.90
39525;DHT22;25203;50.754;6.978;2023-05-07T01:14:02;13.10;99.90
39525;DHT22;25203;50.754;6.978;2023-05-07T01:16:03;13.10;99.90
39525;DHT22;25203;50.754;6.978;2023-05-07T01:18:04;13.10;99.90
39525;DHT22;25203;50.754;6.978;2023-05-07T01:20:06;13.10;99.90
39525;DHT22;25203;50.754;6.978;2023-05-07T01:22:11;13.10;99.90
39525;DHT22;25203;50.754;6.978;2023-05-07T01:24:12;13.10;99.90
39525;DHT22;25203;50.754;6.978;2023-05-07T01:26:13;13.00;99.90
39525;DHT22;25203;50.754;6.978;2023-05-07T01:28:13;13.10;99.90
39525;DHT22;25203;50.754;6.978;2023-05-07T01:30:14;13.00;99.90
39525;DHT22;25203;50.754;6.978;2023-05-07T01:32:18;13.00;99.90
39525;DHT22;25203;50.754;6.978;2023-05-07T01:34:21;13.00;99.90
39525;DHT22;25203;50.754;6.978;2023-05-07T01:36:22;13.00;99.90
39525;DHT22;25203;50.754;6.978;2023-05-07T01:38:27;13.00;99.90
39525;DHT22;25203;50.754;6.978;2023-05-07T01:40:28;13.00;99.90
39525;DHT22;25203;50.754;6.978;2023-05-07T01:42:29;12.90;99.90
39525;DHT22;25203;50.754;6.978;2023-05-07T01:44:30;12.90;99.90
39525;DHT22;25203;50.754;6.978;2023-05-07T01:46:32;12.90;99.90
39525;DHT22;25203;50.754;6.978;2023-05-07T01:48:33;12.80;99.90
39525;DHT22;25203;50.754;6.978;2023-05-07T01:50:34;12.80;99.90
39525;DHT22;25203;50.754;6.978;2023-05-07T01:52:39;12.90;99.90
39525;DHT22;25203;50.754;6.978;2023-05-07T01:54:39;12.90;99.90
39525;DHT22;25203;50.754;6.978;2023-05-07T01:56:40;12.90;99.90
39525;DHT22;25203;50.754;6.978;2023-05-07T01:58:41;12.90;99.90
39525;DHT22;25203;50.754;6.978;2023-05-07T02:00:41;12.90;99.90
39525;DHT22;25203;50.754;6.978;2023-05-07T02:02:42;12.90;99.90
39525;DHT22;25203;50.754;6.978;2023-05-07T02:04:43;12.90;99.90
39525;DHT22;25203;50.754;6.978;2023-05-07T02:06:43;13.00;99.90
39525;DHT22;25203;50.754;6.978;2023-05-07T02:08:44;13.10;99.90
39525;DHT22;25203;50.754;6.978;2023-05-07T02:10:44;13.10;99.90
39525;DHT22;25203;50.754;6.978;2023-05-07T02:12:45;13.10;99.90
39525;DHT22;25203;50.754;6.978;2023-05-07T02:14:46;13.20;99.90
39525;DHT22;25203;50.754;6.978;2023-05-07T02:16:46;13.30;99.90
39525;DHT22;25203;50.754;6.978;2023-05-07T02:18:47;13.20;99.90
39525;DHT22;25203;50.754;6.978;2023-05-07T02:20:47;13.30;99.90
39525;DHT22;25203;50.754;6.978;2023-05-07T02:22:48;13.30;99.90
39525;DHT22;25203;50.754;6.978;2023-05-07T02:24:49;13.30;99.90
39525;DHT22;25203;50.754;6.978;2023-05-07T02:26:49;13.30;99.90
39525;DHT22;25203;50.754;6.978;2023-05-07T02:28:50;13.30;99.90
39525;DHT22;25203;50.754;6.978;2023-05-07T02:30:52;13.30;99.90
39525;DHT22;25203;50.754;6.978;2023-05-07T02:32:52;13.30;99.90
39525;DHT22;25203;50.754;6.978;2023-05-07T02:34:53;13.30;99.90
39525;DHT22;25203;50.754;6.978;2023-05-07T02:36:54;13.40;99.90
39525;DHT22;25203;50.754;6.978;2023-05-07T02:38:54;13.40;99.90
39525;DHT22;25203;50.754;6.978;2023-05-07T02:40:55;13.40;99.90
39525;DHT22;25203;50.754;6.978;2023-05-07T02:42:55;13.40;99.90
39525;DHT22;25203;50.754;6.978;2023-05-07T02:44:56;13.40;99.90
39525;DHT22;25203;50.754;6.978;2023-05-07T02:46:57;13.40;99.90
39525;DHT22;25203;50.754;6.978;2023-05-07T02:48:57;13.40;99.90
39525;DHT22;25203;50.754;6.978;2023-05-07T02:50:58;13.40;99.90
39525;DHT22;25203;50.754;6.978;2023-05-07T02:52:59;13.30;99.90
39525;DHT22;25203;50.754;6.978;2023-05-07T02:54:59;13.30;99.90
39525;DHT22;25203;50.754;6.978;2023-05-07T02:57:00;13.40;99.90
39525;DHT22;25203;50.754;6.978;2023-05-07T02:59:03;13.30;99.90
39525;DHT22;25203;50.754;6.978;2023-05-07T03:01:04;13.30;99.90
39525;DHT22;25203;50.754;6.978;2023-05-07T03:03:05;13.30;99.90
39525;DHT22;25203;50.754;6.978;2023-05-07T03:05:06;13.40;99.90
39525;DHT22;25203;50.754;6.978;2023-05-07T03:07:06;13.30;99.90
39525;DHT22;25203;50.754;6.978;2023-05-07T03:09:07;13.40;99.90
39525;DHT22;25203;50.754;6.978;2023-05-07T03:11:08;13.30;99.90
39525;DHT22;25203;50.754;6.978;2023-05-07T03:13:08;13.30;99.90
39525;DHT22;25203;50.754;6.978;2023-05-07T03:15:09;13.30;99.90
39525;DHT22;25203;50.754;6.978;2023-05-07T03:17:10;13.30;99.90
39525;DHT22;25203;50.754;6.978;2023-05-07T03:19:11;13.30;99.90
39525;DHT22;25203;50.754;6.978;2023-05-07T03:21:12;13.30;99.90
39525;DHT22;25203;50.754;6.978;2023-05-07T03:23:12;13.20;99.90
39525;DHT22;25203;50.754;6.978;2023-05-07T03:25:13;13.20;99.90
39525;DHT22;25203;50.754;6.978;2023-05-07T03:27:15;13.10;99.90
39525;DHT22;25203;50.754;6.978;2023-05-07T03:29:15;13.10;99.90
39525;DHT22;25203;50.754;6.978;2023-05-07T03:31:16;13.00;99.90
39525;DHT22;25203;50.754;6.978;2023-05-07T03:33:17;13.00;99.90
39525;DHT22;25203;50.754;6.978;2023-05-07T03:35:17;13.00;99.90
39525;DHT22;25203;50.754;6.978;2023-05-07T03:37:18;13.00;99.90
39525;DHT22;25203;50.754;6.978;2023-05-07T03:39:19;12.90;99.90
39525;DHT22;25203;50.754;6.978;2023-05-07T03:41:20;12.90;99.90
39525;DHT22;25203;50.754;6.978;2023-05-07T03:43:21;12.90;99.90
39525;DHT22;25203;50.754;6.978;2023-05-07T03:45:21;12.90;99.90
39525;DHT22;25203;50.754;6.978;2023-05-07T03:47:22;12.80;99.90
39525;DHT22;25203;50.754;6.978;2023-05-07T03:49:22;12.80;99.90
39525;DHT22;25203;50.754;6.978;2023-05-07T03:51:23;12.80;99.90
39525;DHT22;25203;50.754;6.978;2023-05-07T03:53:24;12.80;99.90
39525;DHT22;25203;50.754;6.978;2023-05-07T03:55:24;12.70;99.90
39525;DHT22;25203;50.754;6.978;2023-05-07T03:57:25;12.80;99.90
39525;DHT22;25203;50.754;6.978;2023-05-07T03:59:26;12.70;99.90
39525;DHT22;25203;50.754;6.978;2023-05-07T04:01:26;12.70;99.90
39525;DHT22;25203;50.754;6.978;2023-05-07T04:03:27;12.70;99.90
39525;DHT22;25203;50.754;6.978;2023-05-07T04:05:28;12.70;99.90
39525;DHT22;25203;50.754;6.978;2023-05-07T04:07:28;12.70;99.90
39525;DHT22;25203;50.754;6.978;2023-05-07T04:09:29;12.70;99.90
39525;DHT22;25203;50.754;6.978;2023-05-07T04:11:30;12.70;99.90
39525;DHT22;25203;50.754;6.978;2023-05-07T04:13:30;12.70;99.90
39525;DHT22;25203;50.754;6.978;2023-05-07T04:15:31;12.70;99.90
39525;DHT22;25203;50.754;6.978;2023-05-07T04:17:32;12.70;99.90
39525;DHT22;25203;50.754;6.978;2023-05-07T04:19:35;12.70;99.90
39525;DHT22;25203;50.754;6.978;2023-05-07T04:21:36;12.70;99.90
39525;DHT22;25203;50.754;6.978;2023-05-07T04:23:36;12.60;99.90
39525;DHT22;25203;50.754;6.978;2023-05-07T04:25:37;12.70;99.90
39525;DHT22;25203;50.754;6.978;2023-05-07T04:27:37;12.70;99.90
39525;DHT22;25203;50.754;6.978;2023-05-07T04:29:38;12.70;99.90
39525;DHT22;25203;50.754;6.978;2023-05-07T04:31:42;12.80;99.90
39525;DHT22;25203;50.754;6.978;2023-05-07T04:33:44;12.80;99.90
39525;DHT22;25203;50.754;6.978;2023-05-07T04:35:45;12.80;99.90
39525;DHT22;25203;50.754;6.978;2023-05-07T04:37:46;12.80;99.90
39525;DHT22;25203;50.754;6.978;2023-05-07T04:39:47;12.90;99.90
39525;DHT22;25203;50.754;6.978;2023-05-07T04:41:47;13.00;99.90
39525;DHT22;25203;50.754;6.978;2023-05-07T04:43:48;13.00;99.90
39525;DHT22;25203;50.754;6.978;2023-05-07T04:45:50;13.00;99.90
39525;DHT22;25203;50.754;6.978;2023-05-07T04:47:51;13.00;99.90
39525;DHT22;25203;50.754;6.978;2023-05-07T04:49:52;13.00;99.90
39525;DHT22;25203;50.754;6.978;2023-05-07T04:51:52;12.90;99.90
39525;DHT22;25203;50.754;6.978;2023-05-07T04:53:53;12.80;99.90
39525;DHT22;25203;50.754;6.978;2023-05-07T04:55:57;12.80;99.90
39525;DHT22;25203;50.754;6.978;2023-05-07T04:57:58;12.90;99.90
39525;DHT22;25203;50.754;6.978;2023-05-07T04:59:58;12.90;99.90
39525;DHT22;25203;50.754;6.978;2023-05-07T05:01:59;13.00;99.90
39525;DHT22;25203;50.754;6.978;2023-05-07T05:03:59;13.20;99.90
39525;DHT22;25203;50.754;6.978;2023-05-07T05:06:00;13.30;99.90
39525;DHT22;25203;50.754;6.978;2023-05-07T05:08:01;13.40;99.90
39525;DHT22;25203;50.754;6.978;2023-05-07T05:10:02;13.50;99.90
39525;DHT22;25203;50.754;6.978;2023-05-07T05:12:03;13.60;99.90
39525;DHT22;25203;50.754;6.978;2023-05-07T05:14:04;13.60;99.90
39525;DHT22;25203;50.754;6.978;2023-05-07T05:16:05;13.70;99.90
39525;DHT22;25203;50.754;6.978;2023-05-07T05:18:06;13.60;99.90
39525;DHT22;25203;50.754;6.978;2023-05-07T05:20:07;13.70;99.90
39525;DHT22;25203;50.754;6.978;2023-05-07T05:22:07;13.80;99.90
39525;DHT22;25203;50.754;6.978;2023-05-07T05:24:08;13.90;99.90
39525;DHT22;25203;50.754;6.978;2023-05-07T05:26:08;14.00;99.90
39525;DHT22;25203;50.754;6.978;2023-05-07T05:28:09;14.10;99.90
39525;DHT22;25203;50.754;6.978;2023-05-07T05:30:10;14.20;99.90
39525;DHT22;25203;50.754;6.978;2023-05-07T05:32:11;14.20;99.90
39525;DHT22;25203;50.754;6.978;2023-05-07T05:34:11;14.30;99.90
39525;DHT22;25203;50.754;6.978;2023-05-07T05:36:12;14.40;99.90
39525;DHT22;25203;50.754;6.978;2023-05-07T05:38:13;14.40;99.90
39525;DHT22;25203;50.754;6.978;2023-05-07T05:40:14;14.50;99.90
39525;DHT22;25203;50.754;6.978;2023-05-07T05:42:14;14.60;99.90
39525;DHT22;25203;50.754;6.978;2023-05-07T05:44:15;14.60;99.90
39525;DHT22;25203;50.754;6.978;2023-05-07T05:46:15;14.70;99.90
39525;DHT22;25203;50.754;6.978;2023-05-07T05:48:16;14.60;99.90
39525;DHT22;25203;50.754;6.978;2023-05-07T05:50:17;14.70;99.90
39525;DHT22;25203;50.754;6.978;2023-05-07T05:52:18;14.80;99.90
39525;DHT22;25203;50.754;6.978;2023-05-07T05:54:18;14.80;99.90
39525;DHT22;25203;50.754;6.978;2023-05-07T05:56:19;14.90;99.90
39525;DHT22;25203;50.754;6.978;2023-05-07T05:58:20;15.10;99.90
39525;DHT22;25203;50.754;6.978;2023-05-07T06:00:21;15.20;99.90
39525;DHT22;25203;50.754;6.978;2023-05-07T06:02:24;15.30;99.90
39525;DHT22;25203;50.754;6.978;2023-05-07T06:04:24;15.40;99.90
39525;DHT22;25203;50.754;6.978;2023-05-07T06:06:25;15.50;99.90
39525;DHT22;25203;50.754;6.978;2023-05-07T06:08:29;15.60;99.90
39525;DHT22;25203;50.754;6.978;2023-05-07T06:10:30;15.70;99.90
39525;DHT22;25203;50.754;6.978;2023-05-07T06:12:31;15.90;99.90
39525;DHT22;25203;50.754;6.978;2023-05-07T06:14:32;16.10;99.90
39525;DHT22;25203;50.754;6.978;2023-05-07T06:16:32;16.20;99.90
39525;DHT22;25203;50.754;6.978;2023-05-07T06:18:33;16.40;99.90
39525;DHT22;25203;50.754;6.978;2023-05-07T06:20:36;16.60;99.90
39525;DHT22;25203;50.754;6.978;2023-05-07T06:22:36;16.70;99.90
39525;DHT22;25203;50.754;6.978;2023-05-07T06:24:37;16.80;99.90
39525;DHT22;25203;50.754;6.978;2023-05-07T06:26:38;16.80;99.90
39525;DHT22;25203;50.754;6.978;2023-05-07T06:28:38;16.90;99.90
39525;DHT22;25203;50.754;6.978;2023-05-07T06:30:39;17.10;99.90
39525;DHT22;25203;50.754;6.978;2023-05-07T06:32:41;17.10;99.90
39525;DHT22;25203;50.754;6.978;2023-05-07T06:34:41;17.20;99.90
39525;DHT22;25203;50.754;6.978;2023-05-07T06:36:42;17.00;99.90
39525;DHT22;25203;50.754;6.978;2023-05-07T06:38:42;17.00;99.90
39525;DHT22;25203;50.754;6.978;2023-05-07T06:40:43;17.00;99.90
39525;DHT22;25203;50.754;6.978;2023-05-07T06:42:43;17.00;99.90
39525;DHT22;25203;50.754;6.978;2023-05-07T06:44:44;17.00;99.90
39525;DHT22;25203;50.754;6.978;2023-05-07T06:46:45;17.20;99.90
39525;DHT22;25203;50.754;6.978;2023-05-07T06:48:46;17.30;99.90
39525;DHT22;25203;50.754;6.978;2023-05-07T06:50:46;17.40;99.90
39525;DHT22;25203;50.754;6.978;2023-05-07T06:52:47;17.50;99.90
39525;DHT22;25203;50.754;6.978;2023-05-07T06:54:47;17.60;99.90
39525;DHT22;25203;50.754;6.978;2023-05-07T06:56:48;17.50;99.90
39525;DHT22;25203;50.754;6.978;2023-05-07T06:58:49;17.40;99.90
39525;DHT22;25203;50.754;6.978;2023-05-07T07:00:49;17.40;99.90
39525;DHT22;25203;50.754;6.978;2023-05-07T07:02:50;17.50;99.90
39525;DHT22;25203;50.754;6.978;2023-05-07T07:04:50;17.60;99.90
39525;DHT22;25203;50.754;6.978;2023-05-07T07:06:54;17.50;99.90
39525;DHT22;25203;50.754;6.978;2023-05-07T07:08:55;17.60;99.90
39525;DHT22;25203;50.754;6.978;2023-05-07T07:10:55;17.60;99.90
39525;DHT22;25203;50.754;6.978;2023-05-07T07:12:56;17.80;99.90
39525;DHT22;25203;50.754;6.978;2023-05-07T07:14:57;18.00;99.90
39525;DHT22;25203;50.754;6.978;2023-05-07T07:16:57;18.20;99.90
39525;DHT22;25203;50.754;6.978;2023-05-07T07:18:58;18.10;99.90
39525;DHT22;25203;50.754;6.978;2023-05-07T07:20:58;18.00;99.90
39525;DHT22;25203;50.754;6.978;2023-05-07T07:22:59;18.00;99.90
39525;DHT22;25203;50.754;6.978;2023-05-07T07:25:00;17.90;99.90
39525;DHT22;25203;50.754;6.978;2023-05-07T07:27:00;17.90;99.90
39525;DHT22;25203;50.754;6.978;2023-05-07T07:29:01;18.10;99.90
39525;DHT22;25203;50.754;6.978;2023-05-07T07:31:02;18.30;99.90
39525;DHT22;25203;50.754;6.978;2023-05-07T07:33:02;18.70;99.90
39525;DHT22;25203;50.754;6.978;2023-05-07T07:35:03;18.90;99.90
39525;DHT22;25203;50.754;6.978;2023-05-07T07:37:05;19.20;99.90
39525;DHT22;25203;50.754;6.978;2023-05-07T07:39:06;19.40;99.90
39525;DHT22;25203;50.754;6.978;2023-05-07T07:41:10;19.40;99.90
39525;DHT22;25203;50.754;6.978;2023-05-07T07:43:10;19.30;99.90
39525;DHT22;25203;50.754;6.978;2023-05-07T07:45:11;19.40;99.90
39525;DHT22;25203;50.754;6.978;2023-05-07T07:47:12;19.40;99.90
39525;DHT22;25203;50.754;6.978;2023-05-07T07:49:13;19.50;99.90
39525;DHT22;25203;50.754;6.978;2023-05-07T07:51:14;19.60;99.90
39525;DHT22;25203;50.754;6.978;2023-05-07T07:53:14;19.60;99.90
39525;DHT22;25203;50.754;6.978;2023-05-07T07:55:15;19.50;99.90
39525;DHT22;25203;50.754;6.978;2023-05-07T07:57:21;19.50;99.90
39525;DHT22;25203;50.754;6.978;2023-05-07T07:59:21;19.60;99.90
39525;DHT22;25203;50.754;6.978;2023-05-07T08:01:22;19.60;99.90
39525;DHT22;25203;50.754;6.978;2023-05-07T08:03:23;19.70;99.90
39525;DHT22;25203;50.754;6.978;2023-05-07T08:05:24;19.70;99.90
39525;DHT22;25203;50.754;6.978;2023-05-07T08:07:25;19.80;99.90
39525;DHT22;25203;50.754;6.978;2023-05-07T08:09:25;20.00;99.90
39525;DHT22;25203;50.754;6.978;2023-05-07T08:11:26;20.00;99.90
39525;DHT22;25203;50.754;6.978;2023-05-07T08:13:27;20.20;99.90
39525;DHT22;25203;50.754;6.978;2023-05-07T08:15:28;20.50;99.90
39525;DHT22;25203;50.754;6.978;2023-05-07T08:17:28;20.50;99.90
39525;DHT22;25203;50.754;6.978;2023-05-07T08:19:29;20.30;99.90
39525;DHT22;25203;50.754;6.978;2023-05-07T08:21:29;20.50;99.90
39525;DHT22;25203;50.754;6.978;2023-05-07T08:23:31;20.60;99.90
39525;DHT22;25203;50.754;6.978;2023-05-07T08:25:33;21.00;99.90
39525;DHT22;25203;50.754;6.978;2023-05-07T08:27:34;21.20;99.90
39525;DHT22;25203;50.754;6.978;2023-05-07T08:29:35;21.60;99.90
39525;DHT22;25203;50.754;6.978;2023-05-07T08:31:35;21.70;99.90
39525;DHT22;25203;50.754;6.978;2023-05-07T08:33:36;21.60;99.90
39525;DHT22;25203;50.754;6.978;2023-05-07T08:35:38;21.60;99.90
39525;DHT22;25203;50.754;6.978;2023-05-07T08:37:39;22.40;99.90
39525;DHT22;25203;50.754;6.978;2023-05-07T08:39:39;23.40;99.70
39525;DHT22;25203;50.754;6.978;2023-05-07T08:41:40;23.80;94.20
39525;DHT22;25203;50.754;6.978;2023-05-07T08:43:47;23.70;95.60
39525;DHT22;25203;50.754;6.978;2023-05-07T08:45:49;24.10;95.60
39525;DHT22;25203;50.754;6.978;2023-05-07T08:47:58;24.40;92.20
39525;DHT22;25203;50.754;6.978;2023-05-07T08:50:01;24.60;91.90
39525;DHT22;25203;50.754;6.978;2023-05-07T08:52:02;25.30;91.50
39525;DHT22;25203;50.754;6.978;2023-05-07T08:54:03;25.30;88.60
39525;DHT22;25203;50.754;6.978;2023-05-07T08:56:06;25.80;88.90
39525;DHT22;25203;50.754;6.978;2023-05-07T08:58:07;26.60;86.40
39525;DHT22;25203;50.754;6.978;2023-05-07T09:00:08;27.20;83.00
39525;DHT22;25203;50.754;6.978;2023-05-07T09:02:10;27.70;79.90
39525;DHT22;25203;50.754;6.978;2023-05-07T09:04:12;27.70;73.40
39525;DHT22;25203;50.754;6.978;2023-05-07T09:06:13;27.90;74.80
39525;DHT22;25203;50.754;6.978;2023-05-07T09:08:15;28.50;71.50
39525;DHT22;25203;50.754;6.978;2023-05-07T09:10:16;29.40;71.60
39525;DHT22;25203;50.754;6.978;2023-05-07T09:12:18;30.20;67.20
39525;DHT22;25203;50.754;6.978;2023-05-07T09:14:21;30.50;67.30
39525;DHT22;25203;50.754;6.978;2023-05-07T09:16:22;29.90;62.90
39525;DHT22;25203;50.754;6.978;2023-05-07T09:18:24;29.60;65.60
39525;DHT22;25203;50.754;6.978;2023-05-07T09:20:25;29.80;65.30
39525;DHT22;25203;50.754;6.978;2023-05-07T09:22:26;30.00;66.10
39525;DHT22;25203;50.754;6.978;2023-05-07T09:24:27;30.20;65.00
39525;DHT22;25203;50.754;6.978;2023-05-07T09:26:28;29.90;64.80
39525;DHT22;25203;50.754;6.978;2023-05-07T09:28:29;29.50;65.80
39525;DHT22;25203;50.754;6.978;2023-05-07T09:30:31;28.60;66.20
39525;DHT22;25203;50.754;6.978;2023-05-07T09:32:35;28.30;67.50
39525;DHT22;25203;50.754;6.978;2023-05-07T09:34:36;27.70;69.00
39525;DHT22;25203;50.754;6.978;2023-05-07T09:36:37;27.30;69.90
39525;DHT22;25203;50.754;6.978;2023-05-07T09:38:38;26.80;72.50
39525;DHT22;25203;50.754;6.978;2023-05-07T09:40:38;26.70;74.10
39525;DHT22;25203;50.754;6.978;2023-05-07T09:42:39;26.40;71.70
39525;DHT22;25203;50.754;6.978;2023-05-07T09:44:40;26.70;74.10
39525;DHT22;25203;50.754;6.978;2023-05-07T09:46:42;27.00;73.10
39525;DHT22;25203;50.754;6.978;2023-05-07T09:48:44;27.40;71.10
39525;DHT22;25203;50.754;6.978;2023-05-07T09:50:49;27.60;70.30
39525;DHT22;25203;50.754;6.978;2023-05-07T09:52:52;28.00;69.80
39525;DHT22;25203;50.754;6.978;2023-05-07T09:54:53;28.60;68.30
39525;DHT22;25203;50.754;6.978;2023-05-07T09:56:55;29.60;67.20
39525;DHT22;25203;50.754;6.978;2023-05-07T09:59:00;30.60;64.70
39525;DHT22;25203;50.754;6.978;2023-05-07T10:01:02;30.30;63.10
39525;DHT22;25203;50.754;6.978;2023-05-07T10:03:03;30.20;63.50
39525;DHT22;25203;50.754;6.978;2023-05-07T10:05:05;30.30;64.30
39525;DHT22;25203;50.754;6.978;2023-05-07T10:07:07;30.20;61.80
39525;DHT22;25203;50.754;6.978;2023-05-07T10:09:09;29.70;62.70
39525;DHT22;25203;50.754;6.978;2023-05-07T10:11:11;29.70;64.70
39525;DHT22;25203;50.754;6.978;2023-05-07T10:13:12;30.40;63.40
39525;DHT22;25203;50.754;6.978;2023-05-07T10:15:13;30.80;63.00
39525;DHT22;25203;50.754;6.978;2023-05-07T10:17:16;31.00;61.80
39525;DHT22;25203;50.754;6.978;2023-05-07T10:19:17;31.80;60.60
39525;DHT22;25203;50.754;6.978;2023-05-07T10:21:20;31.90;59.20
39525;DHT22;25203;50.754;6.978;2023-05-07T10:23:23;30.40;60.50
39525;DHT22;25203;50.754;6.978;2023-05-07T10:25:32;29.60;62.00
39525;DHT22;25203;50.754;6.978;2023-05-07T10:27:33;28.00;62.30
39525;DHT22;25203;50.754;6.978;2023-05-07T10:29:55;27.50;66.40
39525;DHT22;25203;50.754;6.978;2023-05-07T10:34:28;26.70;68.20
39525;DHT22;25203;50.754;6.978;2023-05-07T10:36:30;26.80;70.30
39525;DHT22;25203;50.754;6.978;2023-05-07T10:38:31;26.80;68.20
39525;DHT22;25203;50.754;6.978;2023-05-07T10:40:32;26.70;70.90
39525;DHT22;25203;50.754;6.978;2023-05-07T10:42:33;27.30;69.70
39525;DHT22;25203;50.754;6.978;2023-05-07T10:44:34;27.90;68.70
39525;DHT22;25203;50.754;6.978;2023-05-07T10:46:35;28.10;66.50
39525;DHT22;25203;50.754;6.978;2023-05-07T10:51:20;28.60;64.50
39525;DHT22;25203;50.754;6.978;2023-05-07T10:53:22;28.50;65.90
39525;DHT22;25203;50.754;6.978;2023-05-07T10:55:24;28.50;66.10
39525;DHT22;25203;50.754;6.978;2023-05-07T10:59:33;28.30;65.50
39525;DHT22;25203;50.754;6.978;2023-05-07T11:02:03;28.20;65.70
39525;DHT22;25203;50.754;6.978;2023-05-07T11:04:17;28.10;66.60
39525;DHT22;25203;50.754;6.978;2023-05-07T11:06:24;28.30;68.50
39525;DHT22;25203;50.754;6.978;2023-05-07T11:08:26;28.60;67.30
39525;DHT22;25203;50.754;6.978;2023-05-07T11:11:04;29.00;65.60
39525;DHT22;25203;50.754;6.978;2023-05-07T11:13:05;29.10;65.10
39525;DHT22;25203;50.754;6.978;2023-05-07T11:15:07;28.60;65.00
39525;DHT22;25203;50.754;6.978;2023-05-07T11:17:09;28.30;66.40
39525;DHT22;25203;50.754;6.978;2023-05-07T11:19:10;27.80;66.70
39525;DHT22;25203;50.754;6.978;2023-05-07T11:21:11;27.40;68.80
39525;DHT22;25203;50.754;6.978;2023-05-07T11:25:38;26.50;71.00
39525;DHT22;25203;50.754;6.978;2023-05-07T11:27:39;26.10;72.70
39525;DHT22;25203;50.754;6.978;2023-05-07T11:29:46;25.90;76.20
39525;DHT22;25203;50.754;6.978;2023-05-07T11:31:54;25.60;74.70
39525;DHT22;25203;50.754;6.978;2023-05-07T11:33:55;25.40;77.70
39525;DHT22;25203;50.754;6.978;2023-05-07T11:35:57;25.10;79.40
39525;DHT22;25203;50.754;6.978;2023-05-07T11:37:59;24.80;81.10
39525;DHT22;25203;50.754;6.978;2023-05-07T11:40:08;24.70;83.10
39525;DHT22;25203;50.754;6.978;2023-05-07T11:42:42;24.60;83.00
39525;DHT22;25203;50.754;6.978;2023-05-07T11:44:45;24.50;84.20
39525;DHT22;25203;50.754;6.978;2023-05-07T11:46:47;24.20;86.10
39525;DHT22;25203;50.754;6.978;2023-05-07T11:48:48;24.00;86.40
39525;DHT22;25203;50.754;6.978;2023-05-07T11:52:59;23.80;87.90
39525;DHT22;25203;50.754;6.978;2023-05-07T11:55:01;23.70;87.20
39525;DHT22;25203;50.754;6.978;2023-05-07T11:57:02;23.60;87.40
39525;DHT22;25203;50.754;6.978;2023-05-07T11:59:02;23.40;87.40
39525;DHT22;25203;50.754;6.978;2023-05-07T12:01:03;23.30;88.80
39525;DHT22;25203;50.754;6.978;2023-05-07T12:03:05;23.10;90.30
39525;DHT22;25203;50.754;6.978;2023-05-07T12:05:05;23.00;90.90
39525;DHT22;25203;50.754;6.978;2023-05-07T12:07:11;22.90;91.80
39525;DHT22;25203;50.754;6.978;2023-05-07T12:09:12;22.80;92.10
39525;DHT22;25203;50.754;6.978;2023-05-07T12:11:21;22.70;92.20
39525;DHT22;25203;50.754;6.978;2023-05-07T12:13:24;22.50;92.40
39525;DHT22;25203;50.754;6.978;2023-05-07T12:15:25;22.30;93.10
39525;DHT22;25203;50.754;6.978;2023-05-07T12:17:26;22.10;94.30
39525;DHT22;25203;50.754;6.978;2023-05-07T12:19:26;21.80;96.60
39525;DHT22;25203;50.754;6.978;2023-05-07T12:21:28;21.50;99.50
39525;DHT22;25203;50.754;6.978;2023-05-07T12:23:29;21.20;99.90
39525;DHT22;25203;50.754;6.978;2023-05-07T12:25:34;21.00;99.90
39525;DHT22;25203;50.754;6.978;2023-05-07T12:27:37;20.70;99.90
39525;DHT22;25203;50.754;6.978;2023-05-07T12:29:38;20.50;99.90
39525;DHT22;25203;50.754;6.978;2023-05-07T12:31:41;20.30;99.90
39525;DHT22;25203;50.754;6.978;2023-05-07T12:33:42;20.10;99.90
39525;DHT22;25203;50.754;6.978;2023-05-07T12:35:43;19.90;99.90
39525;DHT22;25203;50.754;6.978;2023-05-07T12:37:46;19.80;99.90
39525;DHT22;25203;50.754;6.978;2023-05-07T12:40:10;19.70;99.90
39525;DHT22;25203;50.754;6.978;2023-05-07T12:42:15;19.50;99.90
39525;DHT22;25203;50.754;6.978;2023-05-07T12:44:16;19.40;99.90
39525;DHT22;25203;50.754;6.978;2023-05-07T12:46:17;19.20;99.90
39525;DHT22;25203;50.754;6.978;2023-05-07T12:48:20;19.10;99.90
39525;DHT22;25203;50.754;6.978;2023-05-07T12:50:21;19.00;99.90
39525;DHT22;25203;50.754;6.978;2023-05-07T12:52:21;18.90;99.90
39525;DHT22;25203;50.754;6.978;2023-05-07T12:54:33;18.90;99.90
39525;DHT22;25203;50.754;6.978;2023-05-07T12:56:36;18.80;99.90
39525;DHT22;25203;50.754;6.978;2023-05-07T12:58:37;18.90;99.90
39525;DHT22;25203;50.754;6.978;2023-05-07T13:00:38;18.90;99.90